Archival Weather

Southern Wisconsin Rgnl

Janesville, Wisconsin (KJVL)

Report from: Tuesday, June 6, 2023 12:45 PM CDT
Current time: Wednesday, December 6, 2023 1:28 AM CST

Current weather – Weather history – Daily summaries
Weather forecast

Present weatherHaze
Temperature24.0°C (75.2°F)
Dew point10.0°C (50.0°F)
Winds 6 kts (3.1 m/s, 6.9 mph) East (80°)
Visibility3 mi. (4.8 km)
Clouds Scattered clouds 3,100 ft. (945 m)
Ceiling: Broken clouds 5,500 ft. (1,676 m)
Altimeter29.95 in.Hg (1014 mB)
Relative humidity41 %
Density altitude1,187 ft. (362 m)
Flight conditions Marginal Visual Meteorological Conditions
Raw dataKJVL 061745Z 08006KT 3SM HZ SCT031 BKN055 24/10 A2995
An error has occurred. This application may no longer respond until reloaded. Reload 🗙